Nearby METAR Reports

 

KMEV - Minden, Nevada, USA
Distance from station: N 3mi, 5km
Updated: Wed, 24-May-2017 12:35am PDT
Clear
Clear
 
Temperature: 54°F , 12°C
Dew Point: 45°F , 7°C
Humidity: 72%
Barometer: 30.07 inHg , 1018.3 hPa
Clouds: Clear
Visibility: 10 miles , 16 km
2017/05/24 07:35 KMEV 240735Z AUTO 10SM CLR 12/07 A3007 RMK AO2
KCXP - Carson City, Nevada, USA
Distance from station: N 10mi, 16km
Updated: Wed, 24-May-2017 12:55am PDT
Few Clouds
Few Clouds
 Wind from calm
Wind: Calm
Temperature: 63°F , 17°C
Dew Point: 41°F , 5°C
Humidity: 45%
Barometer: 30.06 inHg , 1017.9 hPa
Clouds: Few Clouds
Visibility: 10 miles , 16 km
Cloud details: Few Clouds 12000 ft
2017/05/24 07:55 KCXP 240755Z AUTO 00000KT 10SM FEW120 17/05 A3006 RMK A
 
KTVL - South Lake Tahoe, California, USA
Distance from station: WSW 18mi, 29km
Updated: Tue, 23-May-2017 11:53pm PDT
Clear
Clear
 Wind from S
Wind: S 7 mph , 11 km/h
Temperature: 52°F , 11°C
Dew Point: 41°F , 5°C
Humidity: 67%
Barometer: 30.18 inHg , 1022 hPa
Clouds: Clear
Visibility: 10 miles , 16 km
2017/05/24 06:53 KTVL 240653Z AUTO 19006KT 10SM CLR 11/05 A3018 RMK AO2 SLP166 T01060050
KTRK - Truckee Tahoe, California, USA
Distance from station: NW 29mi, 46km
Updated: Wed, 24-May-2017 12:35am PDT
Clear
Clear
 Wind from calm
Wind: Calm
Temperature: 45°F , 7°C
Dew Point: 37°F , 3°C
Humidity: 76%
Barometer: 30.16 inHg , 1021.3 hPa
Clouds: Clear
Visibility: 10 miles , 16 km
2017/05/24 07:35 KTRK 240735Z AUTO 00000KT 10SM CLR 07/03 A3016 RMK AO2
 
KRNO - Reno, Nevada, USA
Distance from station: N 31mi, 50km
Updated: Tue, 23-May-2017 11:55pm PDT
Clear
Clear
 Wind from S
Wind: S 5 mph , 7 km/h
Temperature: 70°F , 21°C
Dew Point: 39°F , 4°C
Humidity: 33%
Barometer: 30.04 inHg , 1017.3 hPa
Clouds: Clear
Visibility: 10 miles , 16 km
2017/05/24 06:55 KRNO 240655Z 18004KT 10SM CLR 21/04 A3004 RMK AO2 SLP112 T02110039
KRTS - Reno/Stead, Nevada, USA
Distance from station: NNW 44mi, 71km
Updated: Wed, 24-May-2017 12:35am PDT
Clear
Clear
 Wind from NNW
Wind: NNW 5 mph , 7 km/h
Temperature: 64°F , 18°C
Dew Point: 36°F , 2°C
Humidity: 34%
Barometer: 30.07 inHg , 1018.3 hPa
Clouds: Clear
Visibility: 10 miles , 16 km
2017/05/24 07:35 KRTS 240735Z AUTO 33004KT 10SM CLR 18/02 A3007 RMK AO2
 
KBLU - Emigrant Gap, California, USA
Distance from station: WNW 55mi, 89km
Updated: Wed, 24-May-2017 12:52am PDT
Clear
Clear
 Wind from calm
Wind: Calm
Temperature: 63°F , 17°C
Dew Point: 41°F , 5°C
Humidity: 45%
Barometer: 30.12 inHg , 1020 hPa
Clouds: Clear
Visibility: 10 miles , 16 km
2017/05/24 07:52 KBLU 240752Z AUTO 00000KT 10SM CLR 17/05 A3012 RMK AO2 SLP097 T01720050 402610156 TSNO
KPVF - Placerville, California, USA
Distance from station: WSW 60mi, 96km
Updated: Wed, 24-May-2017 12:35am PDT
Few Clouds
Few Clouds
 Wind from E
Wind: E 8 mph , 13 km/h
Temperature: 72°F , 22°C
Dew Point: 48°F , 9°C
Humidity: 44%
Barometer: 29.96 inHg , 1014.6 hPa
Clouds: Few Clouds
Visibility: 10 miles , 16 km
Cloud details: Few Clouds 4000 ft
2017/05/24 07:35 KPVF 240735Z AUTO 10007KT 10SM FEW040 22/09 A2996 RMK AO1
 
KNFL - Fallon Nas, Nevada, USA
Distance from station: ENE 61mi, 97km
Updated: Tue, 23-May-2017 11:56pm PDT
Few Clouds
Few Clouds
 Wind from W
Wind: W 7 mph , 11 km/h
Temperature: 72°F , 22°C
Dew Point: 34°F , 1°C
Humidity: 25%
Barometer: 29.98 inHg , 1015.2 hPa
Clouds: Few Clouds
Visibility: 10 miles , 16 km
Cloud details: Few Clouds 25000 ft
2017/05/24 06:56 KNFL 240656Z 28006KT 10SM FEW250 22/01 A2998 RMK AO2 SLP123 T02170011
KGOO - Grass Valley, California, USA
Distance from station: W 70mi, 112km
Updated: Fri, 05-May-2017 6:55am PDT
NOT Current
Clear
Clear
 Wind from SE
Wind: SE 3 mph , 6 km/h
Temperature: 59°F , 15°C
Dew Point: 46°F , 8°C
Humidity: 63%
Barometer: 29.93 inHg , 1013.5 hPa
Clouds: Clear
Visibility: 10 miles , 16 km
2017/05/05 13:55 KGOO 051355Z AUTO 14003KT 10SM CLR 15/08 A2993 RMK AO1
 
KAUN - Auburn Muni, California, USA
Distance from station: W 73mi, 118km
Updated: Wed, 24-May-2017 12:35am PDT
Clear
Clear
 Wind from E
Wind: E 7 mph , 11 km/h
Temperature: 72°F , 22°C
Dew Point: 52°F , 11°C
Humidity: 50%
Barometer: 29.88 inHg , 1011.9 hPa
Clouds: Clear
Visibility: 10 miles , 16 km
2017/05/24 07:35 KAUN 240735Z AUTO 09006KT 10SM CLR 22/11 A2988 RMK AO1
KO22 - Columbia, California, USA
Distance from station: SSW 79mi, 127km
Updated: Wed, 24-May-2017 12:35am PDT
Clear
Clear
 Wind from calm
Wind: Calm
Temperature: 63°F , 17°C
Dew Point: 54°F , 12°C
Humidity: 73%
Barometer: 29.94 inHg , 1013.9 hPa
Clouds: Clear
Visibility: 10 miles , 16 km
2017/05/24 07:35 KO22 240735Z AUTO 00000KT 10SM CLR 17/12 A2994 RMK AO1
 
KLHM - Lincoln, California, USA
Distance from station: W 88mi, 141km
Updated: Wed, 24-May-2017 12:35am PDT
Clear
Clear
 Wind from SSE
Wind: SSE 6 mph , 9 km/h
Temperature: 70°F , 21°C
Dew Point: 54°F , 12°C
Humidity: 57%
Barometer: 29.80 inHg , 1009.1 hPa
Clouds: Clear
Visibility: 10 miles , 16 km
2017/05/24 07:35 KLHM 240735Z AUTO 16005KT 10SM CLR 21/12 A2980 RMK AO1
KBAB - Beale Afb/Marysv, California, USA
Distance from station: W 91mi, 147km
Updated: Tue, 23-May-2017 11:58pm PDT
Clear
Clear
 Wind from SE
Wind: SE 7 mph , 11 km/h
Temperature: 72°F , 22°C
Dew Point: 57°F , 14°C
Humidity: 61%
Barometer: 29.79 inHg , 1008.8 hPa
Clouds: Clear
Visibility: 10 miles , 16 km
2017/05/24 06:58 KBAB 240658Z 13006KT 10SM CLR 22/14 A2979 RMK AO2A SLP090 T02230136 $
 
KMHR - Mather Field, California, USA
Distance from station: WSW 91mi, 147km
Updated: Tue, 23-May-2017 10:45pm PDT
NOT Current
Few Clouds
Few Clouds
 Wind from SSE
Wind: SSE 6 mph , 9 km/h
Temperature: 64°F , 18°C
Dew Point: 54°F , 12°C
Humidity: 68%
Barometer: 29.84 inHg , 1010.5 hPa
Clouds: Few Clouds
Visibility: 10 miles , 16 km
Cloud details: Few Clouds 20000 ft
2017/05/24 05:45 KMHR 240545Z 16005KT 10SM FEW200 18/12 A2984
KLOL - Lovelock, Nevada, USA
Distance from station: NE 94mi, 151km
Updated: Tue, 23-May-2017 11:53pm PDT
Clear
Clear
 Wind from E
Wind: E 12 mph , 19 km/h
Temperature: 64°F , 18°C
Dew Point: 36°F , 2°C
Humidity: 34%
Barometer: 29.95 inHg , 1014.2 hPa
Clouds: Clear
Visibility: 10 miles , 16 km
2017/05/24 06:53 KLOL 240653Z AUTO 08010KT 10SM CLR 18/02 A2995 RMK AO2 SLP104 T01780022 TSNO
 
KMCC - Mcclellan Afb, California, USA
Distance from station: WSW 94mi, 151km
Updated: Wed, 24-May-2017 12:35am PDT
Clear
Clear
 Wind from SSE
Wind: SSE 9 mph , 15 km/h
Temperature: 66°F , 19°C
Dew Point: 52°F , 11°C
Humidity: 60%
Barometer: 29.83 inHg , 1010.2 hPa
Clouds: Clear
Visibility: 10 miles , 16 km
2017/05/24 07:35 KMCC 240735Z AUTO 16008KT 10SM CLR 19/11 A2983 RMK AO2
KMYV - Marysville, California, USA
Distance from station: W 99mi, 159km
Updated: Tue, 23-May-2017 11:53pm PDT
Clear
Clear
 Wind from SSE
Wind: SSE 10 mph , 17 km/h
Temperature: 73°F , 23°C
Dew Point: 59°F , 15°C
Humidity: 61%
Barometer: 29.80 inHg , 1009.1 hPa
Clouds: Clear
Visibility: 10 miles , 16 km
2017/05/24 06:53 KMYV 240653Z AUTO 15009KT 10SM CLR 23/15 A2980 RMK AO2 SLP095 T02330150 $
Honor Flight NV - Honoring all of our Veterans CoCoRaHS (Community Collaborative Rain, Hail and Snow Network) Station Number: NV-DG-2 Live Lightning Map - USA Reno Skywarn Spotter ID: DO21 AlertID Southwestern Weather Network Carson Valley Community Food Closet - providing for the needs of our community